createdAt,value
2023-02-11T00:00:24.177Z,-6.77
2023-02-11T00:05:26.830Z,-6.74
2023-02-11T00:10:29.640Z,-6.88
2023-02-11T00:15:32.294Z,-6.82
2023-02-11T00:20:34.796Z,-6.85
2023-02-11T00:25:45.377Z,-6.89
2023-02-11T00:30:58.440Z,-6.86
2023-02-11T00:36:09.381Z,-6.79
2023-02-11T00:41:13.624Z,-6.88
2023-02-11T00:46:16.993Z,-6.92
2023-02-11T00:51:19.701Z,-7.02
2023-02-11T00:56:22.560Z,-7.12
2023-02-11T01:01:25.504Z,-7.18
2023-02-11T01:06:28.296Z,-7.05
2023-02-11T01:11:30.933Z,-7.11
2023-02-11T01:16:33.548Z,-7.05
2023-02-11T01:21:36.239Z,-7.14
2023-02-11T01:26:38.861Z,-7.20
2023-02-11T01:31:41.447Z,-7.22
2023-02-11T01:36:43.978Z,-7.32
2023-02-11T01:41:46.762Z,-7.38
2023-02-11T01:46:49.616Z,-7.47
2023-02-11T01:52:10.578Z,-7.54
2023-02-11T01:57:23.032Z,-7.58
2023-02-11T02:02:40.854Z,-7.64
2023-02-11T02:07:51.573Z,-7.65
2023-02-11T02:12:55.036Z,-7.61
2023-02-11T02:18:30.718Z,-7.58
2023-02-11T02:24:04.574Z,-7.51
2023-02-11T02:29:49.010Z,-7.42
2023-02-11T02:35:02.403Z,-7.45
2023-02-11T02:40:13.143Z,-7.42
2023-02-11T02:45:17.055Z,-7.43
2023-02-11T02:50:25.449Z,-7.48
2023-02-11T02:55:49.751Z,-7.53
2023-02-11T03:01:50.394Z,-7.66
2023-02-11T03:07:14.315Z,-7.72
2023-02-11T03:12:17.960Z,-7.82
2023-02-11T03:17:24.308Z,-7.86
2023-02-11T03:22:43.116Z,-7.85
2023-02-11T03:28:14.061Z,-7.88
2023-02-11T03:33:34.995Z,-7.87
2023-02-11T03:38:44.027Z,-7.82
2023-02-11T03:43:50.894Z,-7.83
2023-02-11T03:48:58.975Z,-7.89
2023-02-11T03:54:05.157Z,-7.85
2023-02-11T03:59:09.537Z,-7.90
2023-02-11T04:04:12.325Z,-7.89
2023-02-11T04:09:15.519Z,-7.92
2023-02-11T04:14:18.096Z,-7.90
2023-02-11T04:19:21.062Z,-7.87
2023-02-11T04:24:24.005Z,-7.91
2023-02-11T04:29:27.161Z,-7.94
2023-02-11T04:34:29.965Z,-7.73
2023-02-11T04:39:32.719Z,-7.00
2023-02-11T04:44:35.289Z,-5.76
2023-02-11T04:49:37.750Z,-4.57
2023-02-11T04:54:40.877Z,-4.05
2023-02-11T04:59:43.524Z,-3.76
2023-02-11T05:04:46.416Z,-3.28
2023-02-11T05:09:49.256Z,-2.96
2023-02-11T05:14:51.898Z,-2.68
2023-02-11T05:19:54.567Z,-1.96
2023-02-11T05:24:57.023Z,-1.23
2023-02-11T05:29:59.529Z,-0.88
2023-02-11T05:35:02.251Z,-0.51
2023-02-11T05:40:06.391Z,0.22
2023-02-11T05:45:09.708Z,0.25
2023-02-11T05:50:12.983Z,0.57
2023-02-11T05:55:16.137Z,0.86
2023-02-11T06:00:19.327Z,1.25
2023-02-11T06:05:22.075Z,1.75
2023-02-11T06:10:24.580Z,1.85
2023-02-11T06:15:27.482Z,2.13
2023-02-11T06:20:30.278Z,1.74
2023-02-11T06:25:33.240Z,2.47
2023-02-11T06:30:37.481Z,3.14
2023-02-11T06:35:40.596Z,2.85
2023-02-11T06:40:48.506Z,3.51
2023-02-11T06:45:56.092Z,3.84
2023-02-11T06:51:04.075Z,3.75
2023-02-11T06:56:09.129Z,3.79
2023-02-11T07:01:14.504Z,4.35
2023-02-11T07:06:19.296Z,5.05
2023-02-11T07:11:28.689Z,5.31
2023-02-11T07:16:32.728Z,5.20
2023-02-11T07:21:35.817Z,4.78
2023-02-11T07:26:38.857Z,5.67
2023-02-11T07:31:44.392Z,6.22
2023-02-11T07:36:49.185Z,5.63
2023-02-11T07:41:52.009Z,6.16
2023-02-11T07:46:55.233Z,6.08
2023-02-11T07:51:58.108Z,5.86
2023-02-11T07:57:00.941Z,5.30
2023-02-11T08:02:03.989Z,6.31
2023-02-11T08:07:07.166Z,6.99
2023-02-11T08:12:10.207Z,7.49
2023-02-11T08:17:12.847Z,7.37
2023-02-11T08:22:15.537Z,7.24
2023-02-11T08:27:18.194Z,7.56
2023-02-11T08:32:21.590Z,8.12
2023-02-11T08:37:24.387Z,8.50
2023-02-11T08:42:27.124Z,8.33
2023-02-11T08:47:32.697Z,7.93
2023-02-11T08:52:36.968Z,8.73
2023-02-11T08:57:42.842Z,9.27
2023-02-11T09:02:45.952Z,9.64
2023-02-11T09:07:49.144Z,9.25
2023-02-11T09:12:51.876Z,9.51
2023-02-11T09:17:54.603Z,9.94
2023-02-11T09:22:58.889Z,10.35
2023-02-11T09:28:05.226Z,10.47
2023-02-11T09:33:10.730Z,10.63
2023-02-11T09:38:13.577Z,10.51
2023-02-11T09:43:23.449Z,9.88
2023-02-11T09:48:27.008Z,10.46
2023-02-11T09:53:36.577Z,10.12
2023-02-11T09:58:41.798Z,10.43
2023-02-11T10:04:13.323Z,10.80
2023-02-11T10:09:46.103Z,10.33
2023-02-11T10:15:13.923Z,10.39
2023-02-11T10:20:43.789Z,10.16
2023-02-11T10:25:51.079Z,10.24
2023-02-11T10:31:06.797Z,10.55
2023-02-11T10:36:16.637Z,10.58
2023-02-11T10:41:31.381Z,10.31
2023-02-11T10:46:37.234Z,10.11
2023-02-11T10:51:39.946Z,9.44
2023-02-11T10:56:55.147Z,9.35
2023-02-11T11:02:01.368Z,9.59
2023-02-11T11:07:20.762Z,9.91
2023-02-11T11:12:33.770Z,9.49
2023-02-11T11:17:39.297Z,9.18
2023-02-11T11:22:43.861Z,9.58
2023-02-11T11:27:51.070Z,9.64
2023-02-11T11:32:54.245Z,9.01
2023-02-11T11:38:03.538Z,8.77
2023-02-11T11:43:15.252Z,8.35
2023-02-11T11:48:47.306Z,7.93
2023-02-11T11:54:01.800Z,8.43
2023-02-11T11:59:17.741Z,8.36
2023-02-11T12:04:42.420Z,7.90
2023-02-11T12:10:13.121Z,7.62
2023-02-11T12:15:32.608Z,7.17
2023-02-11T12:21:03.136Z,6.89
2023-02-11T12:26:29.705Z,6.84
2023-02-11T12:31:56.297Z,6.33
2023-02-11T12:37:10.497Z,5.89
2023-02-11T12:42:34.764Z,5.38
2023-02-11T12:47:50.496Z,5.41
2023-02-11T12:53:06.135Z,4.78
2023-02-11T12:58:18.709Z,3.89
2023-02-11T13:03:29.282Z,3.27
2023-02-11T13:08:38.051Z,2.96
2023-02-11T13:13:52.799Z,2.87
2023-02-11T13:19:11.684Z,2.82
2023-02-11T13:24:50.871Z,2.44
2023-02-11T13:29:58.608Z,1.95
2023-02-11T13:35:01.377Z,1.30
2023-02-11T13:40:22.392Z,0.67
2023-02-11T13:45:37.355Z,0.34
2023-02-11T13:50:51.110Z,-0.29
2023-02-11T13:56:10.209Z,-0.61
2023-02-11T14:01:42.770Z,-0.90
2023-02-11T14:07:47.444Z,-1.39
2023-02-11T14:13:17.039Z,-1.71
2023-02-11T14:18:53.567Z,-2.03
2023-02-11T14:24:02.183Z,-2.18
2023-02-11T14:29:28.216Z,-2.32
2023-02-11T14:34:56.794Z,-2.59
2023-02-11T14:40:12.543Z,-2.91
2023-02-11T14:45:37.447Z,-3.12
2023-02-11T14:50:51.750Z,-3.30
2023-02-11T14:55:56.681Z,-3.45
2023-02-11T15:01:01.636Z,-3.56
2023-02-11T15:06:23.538Z,-3.65
2023-02-11T15:11:26.438Z,-3.75
2023-02-11T15:16:29.650Z,-3.75
2023-02-11T15:21:36.330Z,-3.88
2023-02-11T15:26:39.233Z,-3.90
2023-02-11T15:31:42.012Z,-3.97
2023-02-11T15:36:44.878Z,-4.03
2023-02-11T15:41:47.545Z,-4.09
2023-02-11T15:46:50.416Z,-4.12
2023-02-11T15:51:57.206Z,-4.29
2023-02-11T15:57:04.358Z,-4.34
2023-02-11T16:02:20.544Z,-4.32
2023-02-11T16:07:48.120Z,-4.36
2023-02-11T16:12:54.735Z,-4.39
2023-02-11T16:17:58.397Z,-4.52
2023-02-11T16:23:03.336Z,-4.71
2023-02-11T16:28:06.080Z,-4.63
2023-02-11T16:33:11.467Z,-4.68
2023-02-11T16:38:14.157Z,-4.78
2023-02-11T16:43:20.537Z,-4.80
2023-02-11T16:48:23.559Z,-4.79
2023-02-11T16:53:26.703Z,-4.82
2023-02-11T16:58:29.495Z,-4.79
2023-02-11T17:03:36.484Z,-4.84
2023-02-11T17:08:39.758Z,-4.92
2023-02-11T17:13:43.643Z,-4.97
2023-02-11T17:18:47.061Z,-5.00
2023-02-11T17:23:49.997Z,-5.24
2023-02-11T17:28:52.944Z,-5.25
2023-02-11T17:33:56.109Z,-5.26
2023-02-11T17:38:59.253Z,-5.30
2023-02-11T17:44:02.945Z,-5.36
2023-02-11T17:49:05.517Z,-5.30
2023-02-11T17:54:14.722Z,-5.28
2023-02-11T17:59:17.523Z,-5.24
2023-02-11T18:04:21.742Z,-5.20
2023-02-11T18:09:26.186Z,-5.23
2023-02-11T18:14:28.973Z,-5.27
2023-02-11T18:19:33.306Z,-5.24
2023-02-11T18:24:36.074Z,-5.22
2023-02-11T18:29:38.711Z,-5.35
2023-02-11T18:34:42.082Z,-5.52
2023-02-11T18:39:44.772Z,-5.54
2023-02-11T18:44:47.682Z,-5.60
2023-02-11T18:49:50.889Z,-5.63
2023-02-11T18:54:53.619Z,-5.78
2023-02-11T18:59:56.419Z,-5.88
2023-02-11T19:04:59.506Z,-5.88
2023-02-11T19:10:02.552Z,-6.01
2023-02-11T19:15:08.090Z,-6.10
2023-02-11T19:20:11.089Z,-6.29
2023-02-11T19:25:13.995Z,-6.40
2023-02-11T19:30:16.894Z,-6.45
2023-02-11T19:35:20.402Z,-6.42
2023-02-11T19:40:23.781Z,-6.46
2023-02-11T19:45:27.406Z,-6.37
2023-02-11T19:50:30.870Z,-6.34
2023-02-11T19:55:35.496Z,-6.43
2023-02-11T20:00:38.711Z,-6.53
2023-02-11T20:05:43.840Z,-6.48
2023-02-11T20:10:47.289Z,-6.47
2023-02-11T20:15:50.253Z,-6.50
2023-02-11T20:20:53.493Z,-6.49
2023-02-11T20:25:56.468Z,-6.49
2023-02-11T20:31:00.068Z,-6.46
2023-02-11T20:36:07.952Z,-6.64
2023-02-11T20:41:16.809Z,-6.77
2023-02-11T20:46:23.456Z,-6.74
2023-02-11T20:51:29.279Z,-6.86
2023-02-11T20:56:48.884Z,-6.99
2023-02-11T21:01:55.569Z,-7.12
2023-02-11T21:07:02.516Z,-7.02
2023-02-11T21:12:06.616Z,-7.01
2023-02-11T21:17:09.467Z,-6.86
2023-02-11T21:22:12.298Z,-6.88
2023-02-11T21:27:15.024Z,-6.92
2023-02-11T21:32:17.926Z,-7.07
2023-02-11T21:37:21.385Z,-7.38
2023-02-11T21:42:24.371Z,-7.36
2023-02-11T21:47:27.589Z,-7.36
2023-02-11T21:52:30.502Z,-7.34
2023-02-11T21:57:33.006Z,-7.39
2023-02-11T22:02:37.646Z,-7.27
2023-02-11T22:07:40.262Z,-7.27
2023-02-11T22:12:43.105Z,-7.34
2023-02-11T22:17:45.770Z,-7.27
2023-02-11T22:22:48.437Z,-7.27
2023-02-11T22:27:51.225Z,-7.46
2023-02-11T22:32:53.863Z,-7.48
2023-02-11T22:37:56.391Z,-7.51
2023-02-11T22:42:59.233Z,-7.51
2023-02-11T22:48:01.991Z,-7.62
2023-02-11T22:53:04.729Z,-7.71
2023-02-11T22:58:07.644Z,-7.71
2023-02-11T23:03:12.052Z,-7.78
2023-02-11T23:08:14.644Z,-8.02
2023-02-11T23:13:17.588Z,-8.07
2023-02-11T23:18:20.451Z,-8.21
2023-02-11T23:23:23.229Z,-8.29
2023-02-11T23:28:25.899Z,-8.27
2023-02-11T23:33:28.496Z,-8.37
2023-02-11T23:38:31.514Z,-8.35
2023-02-11T23:43:34.271Z,-8.18
2023-02-11T23:48:37.964Z,-8.37
2023-02-11T23:53:41.033Z,-8.34
2023-02-11T23:58:45.102Z,-8.34
